Time,TemperatureF,DewpointF,PressureIn,WindDirection,WindDirectionDegrees,WindSpeedMPH,WindSpeedGustMPH,Humidity,HourlyPrecipIn,Conditions,Clouds,dailyrainin,SolarRadiationWatts/m^2,SoftwareType,DateUTC
2013-02-22 00:21:00,33.0,22.0,-100.00,NW,309,9.0,20.0,63,0.00,,,0.00,0.000000,,2013-02-22 08:21:00,
2013-02-22 00:31:00,33.0,22.0,-100.00,NW,309,9.0,20.0,63,0.00,,,0.00,0.000000,,2013-02-22 08:31:00,
2013-02-22 00:41:00,33.0,22.0,-100.00,NW,309,9.0,20.0,63,0.00,,,0.00,0.000000,,2013-02-22 08:41:00,
2013-02-22 00:52:00,33.0,22.0,-100.00,NW,309,9.0,20.0,63,0.00,,,0.00,0.000000,,2013-02-22 08:52:00,
2013-02-22 01:21:00,38.0,22.0,-100.00,WNW,287,15.0,19.0,53,0.00,,,0.00,0.000000,,2013-02-22 09:21:00,
2013-02-22 01:31:00,38.0,22.0,-100.00,WNW,287,15.0,19.0,53,0.00,,,0.00,0.000000,,2013-02-22 09:31:00,
2013-02-22 01:41:00,38.0,22.0,-100.00,WNW,287,15.0,19.0,53,0.00,,,0.00,0.000000,,2013-02-22 09:41:00,
2013-02-22 01:51:00,38.0,22.0,-100.00,WNW,287,15.0,19.0,53,0.00,,,0.00,0.000000,,2013-02-22 09:51:00,
2013-02-22 02:21:00,35.0,20.0,-100.00,WNW,290,8.0,20.0,55,0.00,,,0.00,0.000000,,2013-02-22 10:21:00,
2013-02-22 02:31:00,35.0,20.0,-100.00,WNW,290,8.0,20.0,55,0.00,,,0.00,0.000000,,2013-02-22 10:31:00,
2013-02-22 02:42:00,35.0,20.0,-100.00,WNW,290,8.0,20.0,55,0.00,,,0.00,0.000000,,2013-02-22 10:42:00,
2013-02-22 02:51:00,35.0,20.0,-100.00,WNW,290,8.0,20.0,55,0.00,,,0.00,0.000000,,2013-02-22 10:51:00,
2013-02-22 03:21:00,34.0,17.0,-100.00,NE,54,3.0,14.0,49,0.00,,,0.00,0.000000,,2013-02-22 11:21:00,
2013-02-22 03:32:00,34.0,17.0,-100.00,NE,54,3.0,14.0,49,0.00,,,0.00,0.000000,,2013-02-22 11:32:00,
2013-02-22 03:42:00,34.0,17.0,-100.00,NE,54,3.0,14.0,49,0.00,,,0.00,0.000000,,2013-02-22 11:42:00,
2013-02-22 03:52:00,34.0,17.0,-100.00,NE,54,3.0,14.0,49,0.00,,,0.00,0.000000,,2013-02-22 11:52:00,
2013-02-22 04:21:00,31.0,20.0,-100.00,NNW,336,1.0,5.0,64,0.00,,,0.00,0.000000,,2013-02-22 12:21:00,
2013-02-22 04:32:00,31.0,20.0,-100.00,NNW,336,1.0,5.0,64,0.00,,,0.00,0.000000,,2013-02-22 12:32:00,
2013-02-22 04:42:00,31.0,20.0,-100.00,NNW,336,1.0,5.0,64,0.00,,,0.00,0.000000,,2013-02-22 12:42:00,
2013-02-22 04:52:00,31.0,20.0,-100.00,NNW,336,1.0,5.0,64,0.00,,,0.00,0.000000,,2013-02-22 12:52:00,
2013-02-22 05:22:00,31.0,19.0,-100.00,WNW,296,2.0,9.0,61,0.00,,,0.00,0.000000,,2013-02-22 13:22:00,
2013-02-22 05:31:00,31.0,19.0,-100.00,WNW,296,2.0,9.0,61,0.00,,,0.00,0.000000,,2013-02-22 13:31:00,
2013-02-22 05:41:00,31.0,19.0,-100.00,WNW,296,2.0,9.0,61,0.00,,,0.00,0.000000,,2013-02-22 13:41:00,
2013-02-22 05:51:00,31.0,19.0,-100.00,WNW,296,2.0,9.0,61,0.00,,,0.00,0.000000,,2013-02-22 13:51:00,
2013-02-22 06:21:00,30.0,17.0,-100.00,WNW,284,4.0,6.0,59,0.00,,,0.00,0.000000,,2013-02-22 14:21:00,
2013-02-22 06:32:00,30.0,17.0,-100.00,WNW,284,4.0,6.0,59,0.00,,,0.00,0.000000,,2013-02-22 14:32:00,
2013-02-22 06:41:00,30.0,17.0,-100.00,WNW,284,4.0,6.0,59,0.00,,,0.00,0.000000,,2013-02-22 14:41:00,
2013-02-22 06:52:00,30.0,17.0,-100.00,WNW,284,4.0,6.0,59,0.00,,,0.00,0.000000,,2013-02-22 14:52:00,
2013-02-22 07:21:00,31.0,18.0,-100.00,West,280,4.0,7.0,59,0.00,,,0.00,7.000000,,2013-02-22 15:21:00,
2013-02-22 07:32:00,31.0,18.0,-100.00,West,280,4.0,7.0,59,0.00,,,0.00,7.000000,,2013-02-22 15:32:00,
2013-02-22 07:41:00,31.0,18.0,-100.00,West,280,4.0,7.0,59,0.00,,,0.00,7.000000,,2013-02-22 15:41:00,
2013-02-22 07:51:00,31.0,18.0,-100.00,West,280,4.0,7.0,59,0.00,,,0.00,7.000000,,2013-02-22 15:51:00,
2013-02-22 09:21:00,47.0,25.0,-100.00,SE,128,4.0,9.0,42,0.00,,,0.00,394.000000,,2013-02-22 17:21:00,
2013-02-22 09:31:00,47.0,25.0,-100.00,SE,128,4.0,9.0,42,0.00,,,0.00,394.000000,,2013-02-22 17:31:00,
2013-02-22 09:41:00,47.0,25.0,-100.00,SE,128,4.0,9.0,42,0.00,,,0.00,394.000000,,2013-02-22 17:41:00,
2013-02-22 09:52:00,47.0,25.0,-100.00,SE,128,4.0,9.0,42,0.00,,,0.00,394.000000,,2013-02-22 17:52:00,
2013-02-22 10:22:00,54.0,26.0,-100.00,ESE,123,2.0,8.0,34,0.00,,,0.00,599.000000,,2013-02-22 18:22:00,
2013-02-22 10:32:00,54.0,26.0,-100.00,ESE,123,2.0,8.0,34,0.00,,,0.00,599.000000,,2013-02-22 18:32:00,
2013-02-22 10:42:00,54.0,26.0,-100.00,ESE,123,2.0,8.0,34,0.00,,,0.00,599.000000,,2013-02-22 18:42:00,
2013-02-22 10:51:00,54.0,26.0,-100.00,ESE,123,2.0,8.0,34,0.00,,,0.00,599.000000,,2013-02-22 18:51:00,
2013-02-22 11:11:00,57.0,23.0,30.17,WSW,239,3.0,8.0,27,0.00,,,0.00,756.000000,,2013-02-22 19:11:00,
2013-02-22 11:21:00,57.0,23.0,30.17,WSW,239,3.0,8.0,27,0.00,,,0.00,756.000000,,2013-02-22 19:21:00,
2013-02-22 11:31:00,57.0,23.0,30.17,WSW,239,3.0,8.0,27,0.00,,,0.00,756.000000,,2013-02-22 19:31:00,
2013-02-22 11:41:00,57.0,23.0,30.17,WSW,239,3.0,8.0,27,0.00,,,0.00,756.000000,,2013-02-22 19:41:00,
2013-02-22 11:51:00,57.0,23.0,30.17,WSW,239,3.0,8.0,27,0.00,,,0.00,756.000000,,2013-02-22 19:51:00,
2013-02-22 12:21:00,61.0,24.0,30.16,WSW,255,5.0,9.0,24,0.00,,,0.00,846.000000,,2013-02-22 20:21:00,
2013-02-22 12:41:00,61.0,24.0,30.16,WSW,255,5.0,9.0,24,0.00,,,0.00,846.000000,,2013-02-22 20:41:00,
2013-02-22 12:52:00,61.0,24.0,30.16,WSW,255,5.0,9.0,24,0.00,,,0.00,846.000000,,2013-02-22 20:52:00,
2013-02-22 13:21:00,61.0,23.0,30.13,NE,47,6.0,15.0,23,0.00,,,0.00,864.000000,,2013-02-22 21:21:00,
2013-02-22 13:31:00,61.0,23.0,30.13,NE,47,6.0,15.0,23,0.00,,,0.00,864.000000,,2013-02-22 21:31:00,
2013-02-22 13:42:00,61.0,23.0,30.13,NE,47,6.0,15.0,23,0.00,,,0.00,864.000000,,2013-02-22 21:42:00,
2013-02-22 13:51:00,61.0,23.0,30.13,NE,47,6.0,15.0,23,0.00,,,0.00,864.000000,,2013-02-22 21:51:00,
2013-02-22 14:21:00,62.0,20.0,30.11,NW,323,3.0,13.0,20,0.00,,,0.00,807.000000,,2013-02-22 22:21:00,
2013-02-22 14:31:00,62.0,20.0,30.11,NW,323,3.0,13.0,20,0.00,,,0.00,807.000000,,2013-02-22 22:31:00,
2013-02-22 14:41:00,62.0,20.0,30.11,NW,323,3.0,13.0,20,0.00,,,0.00,807.000000,,2013-02-22 22:41:00,
2013-02-22 14:51:00,62.0,20.0,30.11,NW,323,3.0,13.0,20,0.00,,,0.00,807.000000,,2013-02-22 22:51:00,
2013-02-22 15:21:00,64.0,22.0,-100.00,NNE,31,7.0,12.0,20,0.00,,,0.00,678.000000,,2013-02-22 23:21:00,
2013-02-22 15:31:00,64.0,22.0,-100.00,NNE,31,7.0,12.0,20,0.00,,,0.00,678.000000,,2013-02-22 23:31:00,
2013-02-22 15:41:00,64.0,22.0,-100.00,NNE,31,7.0,12.0,20,0.00,,,0.00,678.000000,,2013-02-22 23:41:00,
2013-02-22 15:52:00,64.0,22.0,-100.00,NNE,31,7.0,12.0,20,0.00,,,0.00,678.000000,,2013-02-22 23:52:00,
2013-02-22 16:21:00,60.0,18.0,30.11,West,278,13.0,14.0,19,0.00,,,0.00,493.000000,,2013-02-23 00:21:00,
2013-02-22 16:32:00,60.0,18.0,30.11,West,278,13.0,14.0,19,0.00,,,0.00,493.000000,,2013-02-23 00:32:00,
2013-02-22 16:41:00,60.0,18.0,30.11,West,278,13.0,14.0,19,0.00,,,0.00,493.000000,,2013-02-23 00:41:00,
2013-02-22 16:51:00,60.0,18.0,30.11,West,278,13.0,14.0,19,0.00,,,0.00,493.000000,,2013-02-23 00:51:00,
2013-02-22 17:21:00,53.0,32.0,-100.00,West,275,16.0,26.0,44,0.00,,,0.00,167.000000,,2013-02-23 01:21:00,
2013-02-22 17:31:00,53.0,32.0,-100.00,West,275,16.0,26.0,44,0.00,,,0.00,167.000000,,2013-02-23 01:31:00,
2013-02-22 17:41:00,53.0,32.0,-100.00,West,275,16.0,26.0,44,0.00,,,0.00,167.000000,,2013-02-23 01:41:00,
2013-02-22 17:51:00,53.0,32.0,-100.00,West,275,16.0,26.0,44,0.00,,,0.00,167.000000,,2013-02-23 01:51:00,
2013-02-22 18:41:00,46.0,32.0,-100.00,West,265,9.0,24.0,57,0.00,,,0.00,19.000000,,2013-02-23 02:41:00,
2013-02-22 18:52:00,46.0,32.0,-100.00,West,265,9.0,24.0,57,0.00,,,0.00,19.000000,,2013-02-23 02:52:00,
2013-02-22 19:21:00,46.0,31.0,-100.00,WSW,256,8.0,21.0,55,0.00,,,0.00,0.000000,,2013-02-23 03:21:00,
2013-02-22 19:31:00,46.0,31.0,-100.00,WSW,256,8.0,21.0,55,0.00,,,0.00,0.000000,,2013-02-23 03:31:00,
2013-02-22 19:41:00,46.0,31.0,-100.00,WSW,256,8.0,21.0,55,0.00,,,0.00,0.000000,,2013-02-23 03:41:00,
2013-02-22 19:51:00,46.0,31.0,-100.00,WSW,256,8.0,21.0,55,0.00,,,0.00,0.000000,,2013-02-23 03:51:00,
2013-02-22 20:21:00,46.0,28.0,-100.00,West,279,6.0,20.0,50,0.00,,,0.00,0.000000,,2013-02-23 04:21:00,
2013-02-22 20:31:00,46.0,28.0,-100.00,West,279,6.0,20.0,50,0.00,,,0.00,0.000000,,2013-02-23 04:31:00,
2013-02-22 20:41:00,46.0,28.0,-100.00,West,279,6.0,20.0,50,0.00,,,0.00,0.000000,,2013-02-23 04:41:00,
2013-02-22 20:51:00,46.0,28.0,-100.00,West,279,6.0,20.0,50,0.00,,,0.00,0.000000,,2013-02-23 04:51:00,
2013-02-22 21:12:00,44.0,26.0,-100.00,WNW,283,19.0,28.0,49,0.00,,,0.00,0.000000,,2013-02-23 05:12:00,
2013-02-22 21:22:00,44.0,26.0,-100.00,WNW,283,19.0,28.0,49,0.00,,,0.00,0.000000,,2013-02-23 05:22:00,
2013-02-22 21:32:00,44.0,26.0,-100.00,WNW,283,19.0,28.0,49,0.00,,,0.00,0.000000,,2013-02-23 05:32:00,
2013-02-22 21:41:00,44.0,26.0,-100.00,WNW,283,19.0,28.0,49,0.00,,,0.00,0.000000,,2013-02-23 05:41:00,
2013-02-22 21:52:00,44.0,26.0,-100.00,WNW,283,19.0,28.0,49,0.00,,,0.00,0.000000,,2013-02-23 05:52:00,
2013-02-22 22:11:00,44.0,25.0,-100.00,West,279,17.0,27.0,46,0.00,,,0.00,0.000000,,2013-02-23 06:11:00,
2013-02-22 22:22:00,44.0,25.0,-100.00,West,279,17.0,27.0,46,0.00,,,0.00,0.000000,,2013-02-23 06:22:00,
2013-02-22 22:31:00,44.0,25.0,-100.00,West,279,17.0,27.0,46,0.00,,,0.00,0.000000,,2013-02-23 06:31:00,
2013-02-22 22:41:00,44.0,25.0,-100.00,West,279,17.0,27.0,46,0.00,,,0.00,0.000000,,2013-02-23 06:41:00,
2013-02-22 22:51:00,44.0,25.0,-100.00,West,279,17.0,27.0,46,0.00,,,0.00,0.000000,,2013-02-23 06:51:00,
2013-02-22 23:21:00,44.0,21.0,-100.00,WNW,289,14.0,28.0,39,0.00,,,0.00,0.000000,,2013-02-23 07:21:00,
2013-02-22 23:31:00,44.0,21.0,-100.00,WNW,289,14.0,28.0,39,0.00,,,0.00,0.000000,,2013-02-23 07:31:00,
2013-02-22 23:41:00,44.0,21.0,-100.00,WNW,289,14.0,28.0,39,0.00,,,0.00,0.000000,,2013-02-23 07:41:00,
2013-02-22 23:51:00,44.0,21.0,-100.00,WNW,289,14.0,28.0,39,0.00,,,0.00,0.000000,,2013-02-23 07:51:00,